Time;durP1;ratioP1;P1;durP2;ratioP2;P2;SDS_P1;SDS_P2;PMS_P1;PMS_P2;Temp;Humidity;BMP_temperature;BMP_pressure;BME280_temperature;BME280_humidity;BME280_pressure;Samples;Min_cycle;Max_cycle;Signal;HPM_P1;HPM_P2
2021/08/31 00:02:10;;;;;;;3.97;3.57;;;17.70;99.90;;;;;;5114498;28;20167;-66
2021/08/31 00:04:36;;;;;;;4.20;3.80;;;17.70;99.90;;;;;;5114155;28;20268;-65
2021/08/31 00:07:02;;;;;;;4.57;3.90;;;17.70;99.90;;;;;;5114282;28;20622;-65
2021/08/31 00:09:28;;;;;;;4.30;4.00;;;17.70;99.90;;;;;;5114123;28;20259;-65
2021/08/31 00:11:53;;;;;;;7.50;3.90;;;17.70;99.90;;;;;;5114456;28;20172;-66
2021/08/31 00:14:19;;;;;;;3.80;3.50;;;17.60;99.90;;;;;;5114025;28;20445;-66
2021/08/31 00:16:45;;;;;;;4.53;3.87;;;17.60;99.90;;;;;;5114280;28;20561;-65
2021/08/31 00:19:11;;;;;;;4.00;3.60;;;17.60;99.90;;;;;;5113988;28;20175;-66
2021/08/31 00:21:36;;;;;;;4.23;3.83;;;17.60;99.90;;;;;;5114163;28;20464;-67
2021/08/31 00:24:03;;;;;;;5.13;3.70;;;17.50;99.90;;;;;;5114063;28;20255;-65
2021/08/31 00:26:28;;;;;;;4.20;3.87;;;17.50;99.90;;;;;;5114000;28;20555;-65
2021/08/31 00:28:54;;;;;;;3.87;3.57;;;17.50;99.90;;;;;;5112632;28;20468;-65
2021/08/31 00:31:20;;;;;;;4.20;3.90;;;17.50;99.90;;;;;;5113985;28;20282;-66
2021/08/31 00:33:46;;;;;;;3.87;3.57;;;17.50;99.90;;;;;;5114102;28;20443;-66
2021/08/31 00:36:11;;;;;;;3.47;3.17;;;17.50;99.90;;;;;;5113722;28;20237;-65
2021/08/31 00:38:37;;;;;;;4.00;3.60;;;17.50;99.90;;;;;;5112570;28;20218;-66
2021/08/31 00:41:02;;;;;;;3.43;3.13;;;17.50;99.90;;;;;;5113698;28;20195;-65
2021/08/31 00:43:28;;;;;;;4.37;3.50;;;17.50;99.90;;;;;;5113850;28;20321;-66
2021/08/31 00:45:57;;;;;;;3.80;3.50;;;17.50;99.90;;;;;;5113726;28;20188;-67
2021/08/31 00:48:24;;;;;;;3.73;3.43;;;17.50;99.90;;;;;;5113736;28;20206;-66
2021/08/31 00:50:54;;;;;;;3.37;3.07;;;17.50;99.90;;;;;;5113680;28;20448;-67
2021/08/31 00:53:19;;;;;;;3.60;3.27;;;17.60;99.90;;;;;;5112440;28;20764;-67
2021/08/31 00:55:46;;;;;;;3.57;3.27;;;17.70;99.90;;;;;;5113564;28;20557;-65
2021/08/31 00:58:12;;;;;;;4.23;3.90;;;17.70;99.90;;;;;;5113784;28;20664;-67
2021/08/31 01:00:37;;;;;;;3.77;3.47;;;17.70;99.90;;;;;;5113707;28;20428;-66
2021/08/31 01:03:03;;;;;;;4.07;3.77;;;17.70;99.90;;;;;;5113634;28;20180;-66
2021/08/31 01:05:31;;;;;;;3.50;3.20;;;17.80;99.90;;;;;;5113607;28;20195;-65
2021/08/31 01:07:57;;;;;;;5.23;4.07;;;17.80;99.90;;;;;;5113543;28;20467;-65
2021/08/31 01:10:23;;;;;;;3.63;3.33;;;17.80;99.90;;;;;;5112283;28;20481;-66
2021/08/31 01:12:51;;;;;;;2.90;2.70;;;17.90;99.90;;;;;;5113538;28;20805;-65
2021/08/31 01:15:17;;;;;;;4.23;3.40;;;17.90;99.90;;;;;;5113375;28;20515;-66
2021/08/31 01:17:42;;;;;;;4.13;3.73;;;17.90;99.90;;;;;;5112795;28;20424;-66
2021/08/31 01:20:09;;;;;;;3.73;3.43;;;17.90;99.90;;;;;;5117098;28;20426;-65
2021/08/31 01:22:34;;;;;;;3.30;3.10;;;18.00;99.90;;;;;;5117699;28;20187;-65
2021/08/31 01:25:03;;;;;;;2.83;2.63;;;18.00;99.90;;;;;;5116947;28;20423;-65
2021/08/31 01:27:29;;;;;;;3.40;3.10;;;18.00;99.90;;;;;;5116801;28;20223;-65
2021/08/31 01:29:56;;;;;;;3.47;3.17;;;18.10;99.90;;;;;;5117021;27;20921;-65
2021/08/31 01:32:22;;;;;;;3.37;3.07;;;18.10;99.90;;;;;;5117373;28;20407;-65
2021/08/31 01:34:47;;;;;;;2.80;2.60;;;18.10;99.90;;;;;;5116867;28;20944;-65
2021/08/31 01:37:13;;;;;;;3.27;2.97;;;18.10;99.90;;;;;;5115719;28;20613;-66
2021/08/31 01:39:39;;;;;;;3.77;3.47;;;18.10;99.90;;;;;;5116803;28;20200;-65
2021/08/31 01:42:06;;;;;;;3.17;2.90;;;18.10;99.90;;;;;;5117058;28;20203;-65
2021/08/31 01:44:32;;;;;;;3.47;3.17;;;18.10;99.90;;;;;;5116685;28;20499;-65
2021/08/31 01:46:57;;;;;;;3.77;3.10;;;18.20;99.90;;;;;;5117034;28;20424;-65
2021/08/31 01:49:23;;;;;;;4.20;3.87;;;18.20;99.90;;;;;;5116500;28;20972;-65
2021/08/31 01:51:48;;;;;;;3.23;3.03;;;18.20;99.90;;;;;;5115398;28;20183;-65
2021/08/31 01:54:14;;;;;;;3.67;3.30;;;18.20;99.90;;;;;;5116448;28;20180;-66
2021/08/31 01:56:40;;;;;;;4.23;3.23;;;18.20;99.90;;;;;;5116767;28;20672;-65
2021/08/31 01:59:07;;;;;;;3.87;3.57;;;18.30;99.90;;;;;;5116509;28;20443;-66
2021/08/31 02:01:32;;;;;;;3.67;3.37;;;18.30;99.90;;;;;;5115124;28;20195;-66
2021/08/31 02:03:58;;;;;;;3.90;3.60;;;18.30;99.90;;;;;;5115064;28;20438;-65
2021/08/31 02:06:24;;;;;;;3.67;2.93;;;18.30;99.90;;;;;;5116308;28;20200;-65
2021/08/31 02:08:49;;;;;;;3.37;3.07;;;18.30;99.90;;;;;;5114940;28;20263;-65
2021/08/31 02:11:16;;;;;;;3.53;3.23;;;18.30;99.90;;;;;;5115969;28;20676;-65
2021/08/31 02:13:41;;;;;;;4.20;3.43;;;18.30;99.90;;;;;;5116189;28;20580;-66
2021/08/31 02:16:08;;;;;;;3.77;3.20;;;18.30;99.90;;;;;;5114704;28;20515;-66
2021/08/31 02:18:38;;;;;;;3.00;2.80;;;18.30;99.90;;;;;;5116099;27;20183;-66
2021/08/31 02:21:05;;;;;;;3.13;2.93;;;18.30;99.90;;;;;;5116011;28;20428;-66
2021/08/31 02:23:31;;;;;;;3.17;2.90;;;18.30;99.90;;;;;;5114783;28;20408;-67
2021/08/31 02:25:56;;;;;;;3.07;2.80;;;18.30;99.90;;;;;;5115947;28;20432;-67
2021/08/31 02:28:22;;;;;;;3.67;3.37;;;18.30;99.90;;;;;;5114409;28;20266;-65
2021/08/31 02:30:47;;;;;;;3.80;3.47;;;18.30;99.90;;;;;;5113377;28;20237;-65
2021/08/31 02:33:13;;;;;;;3.20;2.90;;;18.30;99.90;;;;;;5115785;28;20176;-66
2021/08/31 02:35:38;;;;;;;3.07;2.80;;;18.30;99.90;;;;;;5115590;28;20275;-65
2021/08/31 02:38:04;;;;;;;3.50;3.20;;;18.30;99.90;;;;;;5115584;28;20629;-66
2021/08/31 02:40:29;;;;;;;3.13;2.90;;;18.30;99.90;;;;;;5114232;28;20636;-65
2021/08/31 02:42:55;;;;;;;3.90;3.00;;;18.30;99.90;;;;;;5115675;28;20645;-66
2021/08/31 02:45:21;;;;;;;3.20;3.00;;;18.20;99.90;;;;;;5114196;28;20235;-65
2021/08/31 02:47:47;;;;;;;2.73;2.53;;;18.20;99.90;;;;;;5115983;28;20285;-66
2021/08/31 02:50:12;;;;;;;3.30;3.00;;;18.20;99.90;;;;;;5114119;28;20660;-65
2021/08/31 02:52:38;;;;;;;2.73;2.53;;;18.20;99.90;;;;;;5115946;28;20172;-66
2021/08/31 02:55:04;;;;;;;2.80;2.60;;;18.20;99.90;;;;;;5115331;28;20195;-65
2021/08/31 02:57:30;;;;;;;2.90;2.70;;;18.20;99.90;;;;;;5114157;28;20527;-66
2021/08/31 02:59:55;;;;;;;2.60;2.40;;;18.20;99.90;;;;;;5113914;28;20435;-65
2021/08/31 03:02:21;;;;;;;2.70;2.50;;;18.20;99.90;;;;;;5115146;28;20176;-66
2021/08/31 03:04:46;;;;;;;3.10;2.50;;;18.20;99.90;;;;;;5115137;28;20283;-65
2021/08/31 03:07:14;;;;;;;2.80;2.57;;;18.20;99.90;;;;;;5115343;28;20172;-67
2021/08/31 03:09:41;;;;;;;2.70;2.50;;;18.20;99.90;;;;;;5115090;28;20209;-66
2021/08/31 03:12:08;;;;;;;2.63;2.43;;;18.20;99.90;;;;;;5115234;28;20427;-65
2021/08/31 03:14:33;;;;;;;2.10;2.00;;;18.20;99.90;;;;;;5115007;28;20452;-67
2021/08/31 03:16:59;;;;;;;2.43;1.93;;;18.30;99.90;;;;;;5115241;28;20443;-65
2021/08/31 03:19:25;;;;;;;2.40;2.20;;;18.30;99.90;;;;;;5113609;28;20179;-65
2021/08/31 03:21:56;;;;;;;2.60;2.40;;;18.20;99.90;;;;;;5115103;28;20179;-67
2021/08/31 03:24:22;;;;;;;2.10;2.00;;;18.20;99.90;;;;;;5114702;28;20408;-65
2021/08/31 03:26:48;;;;;;;2.93;2.10;;;18.20;99.90;;;;;;5114805;28;20448;-65
2021/08/31 03:29:14;;;;;;;2.23;2.03;;;18.20;99.90;;;;;;5114620;28;20468;-66
2021/08/31 03:31:40;;;;;;;1.73;1.63;;;18.20;99.90;;;;;;5113519;28;20453;-65
2021/08/31 03:34:07;;;;;;;2.70;2.50;;;18.20;99.90;;;;;;5114868;28;20220;-66
2021/08/31 03:36:32;;;;;;;2.60;2.20;;;18.20;99.90;;;;;;5113296;28;20484;-66
2021/08/31 03:38:58;;;;;;;2.40;2.20;;;18.20;99.90;;;;;;5114515;28;20201;-66
2021/08/31 03:41:24;;;;;;;2.63;2.33;;;18.20;99.90;;;;;;5114227;28;20685;-65
2021/08/31 03:43:50;;;;;;;3.73;2.30;;;18.20;99.90;;;;;;5114453;28;20818;-65
2021/08/31 03:46:15;;;;;;;2.90;2.60;;;18.20;99.90;;;;;;5114244;28;20199;-65
2021/08/31 03:48:41;;;;;;;2.40;2.07;;;18.20;99.90;;;;;;5114309;28;20211;-66
2021/08/31 03:51:07;;;;;;;2.93;2.50;;;18.20;99.90;;;;;;5114361;28;20203;-65
2021/08/31 03:53:33;;;;;;;2.47;2.27;;;18.10;99.90;;;;;;5112978;28;20263;-65
2021/08/31 03:55:58;;;;;;;2.70;2.23;;;18.10;99.90;;;;;;5112788;28;20447;-65
2021/08/31 03:58:24;;;;;;;3.50;2.57;;;18.10;99.90;;;;;;5114279;28;20483;-66
2021/08/31 04:00:50;;;;;;;2.17;2.00;;;18.10;99.90;;;;;;5114300;28;20199;-65
2021/08/31 04:03:16;;;;;;;2.43;2.23;;;18.10;99.90;;;;;;5114266;28;20179;-66
2021/08/31 04:05:41;;;;;;;2.60;2.40;;;18.10;99.90;;;;;;5112822;28;20203;-65
2021/08/31 04:08:07;;;;;;;2.40;2.20;;;18.10;99.90;;;;;;5114146;28;20219;-65
2021/08/31 04:10:33;;;;;;;2.37;2.00;;;18.10;99.90;;;;;;5114000;28;20267;-66
2021/08/31 04:12:58;;;;;;;2.07;1.90;;;18.10;99.90;;;;;;5114127;28;20551;-66
2021/08/31 04:15:24;;;;;;;2.80;2.60;;;18.10;99.90;;;;;;5112756;28;20455;-65
2021/08/31 04:17:50;;;;;;;2.30;2.10;;;18.10;99.90;;;;;;5114619;28;20175;-66
2021/08/31 04:20:15;;;;;;;5.07;2.67;;;18.10;99.90;;;;;;5112845;28;20204;-65
2021/08/31 04:22:41;;;;;;;2.47;2.27;;;18.10;99.90;;;;;;5103966;28;20524;-66
2021/08/31 04:25:07;;;;;;;4.27;2.97;;;18.10;99.90;;;;;;5101972;28;20212;-66
2021/08/31 04:27:33;;;;;;;2.47;2.27;;;18.10;99.90;;;;;;5100041;28;20231;-65
2021/08/31 04:29:58;;;;;;;2.80;2.40;;;18.00;99.90;;;;;;5095030;28;20497;-67
2021/08/31 04:32:24;;;;;;;2.20;2.10;;;18.10;99.90;;;;;;5099594;28;20185;-66
2021/08/31 04:34:52;;;;;;;3.03;2.73;;;18.10;99.90;;;;;;5094665;28;20749;-66
2021/08/31 04:37:18;;;;;;;3.27;2.30;;;18.00;99.90;;;;;;5111067;28;20571;-66
2021/08/31 04:39:44;;;;;;;2.70;2.50;;;18.00;99.90;;;;;;5111599;28;20435;-66
2021/08/31 04:42:09;;;;;;;3.43;2.90;;;18.00;99.90;;;;;;5110240;28;20419;-65
2021/08/31 04:44:35;;;;;;;2.70;2.33;;;18.00;99.90;;;;;;5091301;28;20200;-66
2021/08/31 04:47:01;;;;;;;3.43;3.13;;;18.00;99.90;;;;;;5090663;28;20517;-68
2021/08/31 04:49:27;;;;;;;4.23;3.03;;;18.00;99.90;;;;;;5089731;28;20476;-65
2021/08/31 04:51:52;;;;;;;3.90;3.60;;;18.00;99.90;;;;;;5100135;28;20442;-64
2021/08/31 04:54:18;;;;;;;3.53;3.23;;;18.00;99.90;;;;;;5101210;28;20191;-63
2021/08/31 04:56:44;;;;;;;6.67;5.00;;;17.90;99.90;;;;;;5130871;27;20176;-63
2021/08/31 04:59:09;;;;;;;3.70;3.30;;;17.90;99.90;;;;;;5100314;28;20200;-63
2021/08/31 05:01:35;;;;;;;3.47;2.53;;;17.90;99.90;;;;;;5108750;28;20172;-63
2021/08/31 05:04:00;;;;;;;3.50;3.20;;;17.90;99.90;;;;;;5108790;28;20188;-64
2021/08/31 05:06:27;;;;;;;2.23;2.03;;;17.90;99.90;;;;;;5106997;28;20196;-63
2021/08/31 05:08:53;;;;;;;3.03;2.83;;;17.90;99.90;;;;;;5107237;28;20208;-64
2021/08/31 05:11:19;;;;;;;2.40;2.20;;;17.90;99.90;;;;;;5105223;28;20448;-64
2021/08/31 05:13:45;;;;;;;3.43;3.13;;;17.90;99.90;;;;;;5106784;28;20192;-63
2021/08/31 05:16:13;;;;;;;2.73;2.50;;;17.90;99.90;;;;;;5109744;28;20464;-65
2021/08/31 05:18:39;;;;;;;2.50;2.30;;;17.90;99.90;;;;;;5105259;28;20191;-65
2021/08/31 05:21:06;;;;;;;2.90;2.70;;;17.90;99.90;;;;;;5111310;28;20592;-63
2021/08/31 05:23:32;;;;;;;2.80;2.60;;;17.90;99.90;;;;;;5110399;28;20427;-65
2021/08/31 05:25:58;;;;;;;2.93;2.73;;;17.90;99.90;;;;;;5097010;28;20479;-63
2021/08/31 05:28:27;;;;;;;2.50;2.30;;;17.90;99.90;;;;;;5100791;28;20993;-64
2021/08/31 05:30:53;;;;;;;2.50;2.30;;;17.90;99.90;;;;;;5103336;28;20455;-63
2021/08/31 05:33:19;;;;;;;1.93;1.83;;;17.90;99.90;;;;;;5114813;28;20420;-64
2021/08/31 05:35:45;;;;;;;3.10;2.60;;;17.90;99.90;;;;;;5110749;28;20207;-66
2021/08/31 05:38:10;;;;;;;2.70;2.50;;;17.90;99.90;;;;;;5114948;28;20188;-64
2021/08/31 05:40:36;;;;;;;3.00;1.90;;;17.90;99.90;;;;;;5111432;28;20432;-63
2021/08/31 05:43:02;;;;;;;1.80;1.70;;;18.00;99.90;;;;;;5113157;28;20211;-64
2021/08/31 05:45:32;;;;;;;2.43;1.70;;;18.00;99.90;;;;;;5113742;28;20436;-64
2021/08/31 05:47:58;;;;;;;2.00;1.83;;;18.00;99.90;;;;;;5109506;28;20216;-63
2021/08/31 05:50:25;;;;;;;2.50;1.50;;;18.00;99.90;;;;;;5103589;28;20464;-64
2021/08/31 05:52:50;;;;;;;4.20;2.37;;;18.00;99.90;;;;;;5109037;28;20403;-64
2021/08/31 05:55:16;;;;;;;2.97;2.13;;;18.00;99.90;;;;;;5112894;28;20815;-63
2021/08/31 05:57:41;;;;;;;8.57;1.97;;;18.10;99.90;;;;;;5115843;28;20180;-63
2021/08/31 06:00:08;;;;;;;19.30;14.70;;;18.10;99.90;;;;;;5113174;28;20203;-64
2021/08/31 06:02:34;;;;;;;10.27;7.93;;;18.10;99.90;;;;;;5101481;28;20184;-64
2021/08/31 06:05:00;;;;;;;61.10;35.70;;;18.20;99.90;;;;;;5111558;28;20448;-63
2021/08/31 06:07:26;;;;;;;2.03;1.90;;;18.20;99.90;;;;;;5109146;28;20470;-64
2021/08/31 06:09:52;;;;;;;1.47;1.37;;;18.20;99.90;;;;;;5113210;28;20261;-65
2021/08/31 06:12:18;;;;;;;1.50;1.40;;;18.30;99.90;;;;;;5103902;28;20427;-63
2021/08/31 06:14:43;;;;;;;2.17;1.47;;;18.30;99.90;;;;;;5114122;28;20235;-63
2021/08/31 06:17:10;;;;;;;1.40;1.30;;;18.40;99.90;;;;;;5103123;28;20233;-65
2021/08/31 06:19:37;;;;;;;1.50;1.40;;;18.40;99.90;;;;;;5112196;28;20562;-65
2021/08/31 06:22:03;;;;;;;1.77;1.67;;;18.50;99.90;;;;;;5112251;28;20904;-63
2021/08/31 06:24:29;;;;;;;1.60;1.50;;;18.50;99.90;;;;;;5112277;28;20439;-64
2021/08/31 06:26:55;;;;;;;2.77;1.90;;;18.60;99.90;;;;;;5135570;27;20468;-63
2021/08/31 06:29:21;;;;;;;1.67;1.20;;;18.60;99.90;;;;;;5113269;28;20235;-63
2021/08/31 06:31:46;;;;;;;2.13;1.93;;;18.70;99.90;;;;;;5106255;28;20232;-63
2021/08/31 06:34:12;;;;;;;1.90;1.73;;;18.70;99.90;;;;;;5133679;27;21015;-63
2021/08/31 06:36:37;;;;;;;1.50;1.40;;;18.80;99.90;;;;;;5107100;28;20180;-64
2021/08/31 06:39:03;;;;;;;1.87;1.33;;;18.70;99.90;;;;;;5104417;28;20270;-65
2021/08/31 06:41:29;;;;;;;1.80;1.70;;;18.80;99.90;;;;;;5099615;28;20208;-63
2021/08/31 06:43:54;;;;;;;1.77;1.67;;;18.90;99.90;;;;;;5096111;28;20219;-65
2021/08/31 06:46:20;;;;;;;1.87;1.77;;;19.00;99.90;;;;;;5102560;28;20245;-64
2021/08/31 06:48:46;;;;;;;2.70;2.33;;;19.00;99.90;;;;;;5106870;28;20239;-64
2021/08/31 06:51:13;;;;;;;2.47;2.27;;;19.10;99.90;;;;;;5093955;28;20938;-63
2021/08/31 06:53:40;;;;;;;2.40;2.17;;;19.10;99.90;;;;;;5108267;28;20217;-64
2021/08/31 06:56:06;;;;;;;2.50;1.97;;;19.20;99.90;;;;;;5105212;28;20531;-64
2021/08/31 06:58:32;;;;;;;2.23;1.77;;;19.20;99.90;;;;;;5097732;28;20425;-65
2021/08/31 07:00:58;;;;;;;2.13;1.93;;;19.30;99.90;;;;;;5102201;28;20459;-64
2021/08/31 07:03:24;;;;;;;3.90;2.07;;;19.40;99.90;;;;;;5102203;27;20186;-65
2021/08/31 07:05:50;;;;;;;2.50;2.30;;;19.40;99.90;;;;;;5108152;28;20212;-64
2021/08/31 07:08:15;;;;;;;2.57;2.37;;;19.50;99.90;;;;;;5105777;28;20877;-65
2021/08/31 07:10:41;;;;;;;3.17;2.87;;;19.60;99.90;;;;;;5109374;28;20208;-63
2021/08/31 07:13:07;;;;;;;2.60;2.40;;;19.60;99.90;;;;;;5109559;28;20188;-65
2021/08/31 07:15:33;;;;;;;2.70;2.50;;;19.70;99.90;;;;;;5110744;28;20459;-65
2021/08/31 07:17:59;;;;;;;3.40;3.10;;;19.80;99.90;;;;;;5105958;28;20433;-64
2021/08/31 07:20:25;;;;;;;3.20;3.00;;;19.80;99.90;;;;;;5136366;27;20288;-63
2021/08/31 07:22:50;;;;;;;4.07;3.67;;;19.90;99.90;;;;;;5109867;28;20177;-64
2021/08/31 07:25:16;;;;;;;3.60;3.30;;;20.00;99.90;;;;;;5113153;28;20464;-64
2021/08/31 07:27:42;;;;;;;4.57;4.17;;;20.10;99.90;;;;;;5106977;28;20229;-64
2021/08/31 07:30:08;;;;;;;7.40;6.10;;;20.20;99.90;;;;;;5097103;28;20206;-64
2021/08/31 07:32:34;;;;;;;5.90;5.00;;;20.30;99.90;;;;;;5109539;28;20178;-66
2021/08/31 07:35:00;;;;;;;3.63;3.33;;;20.30;99.90;;;;;;5098824;28;20455;-64
2021/08/31 07:37:25;;;;;;;3.13;2.83;;;20.40;99.90;;;;;;5134121;27;20195;-63
2021/08/31 07:39:51;;;;;;;5.10;3.40;;;20.50;99.90;;;;;;5099626;28;20450;-64
2021/08/31 07:42:16;;;;;;;3.37;3.07;;;20.50;99.90;;;;;;5094032;28;20591;-63
2021/08/31 07:44:43;;;;;;;3.47;3.17;;;20.60;99.90;;;;;;5103413;28;20202;-65
2021/08/31 07:47:09;;;;;;;3.60;3.10;;;20.60;99.90;;;;;;5100800;28;20170;-64
2021/08/31 07:49:35;;;;;;;4.20;3.23;;;20.70;99.90;;;;;;5104398;28;20835;-63
2021/08/31 07:52:00;;;;;;;3.60;3.30;;;20.70;99.90;;;;;;5091726;28;20454;-64
2021/08/31 07:54:26;;;;;;;3.87;3.57;;;20.80;99.90;;;;;;5092978;28;20179;-66
2021/08/31 07:56:52;;;;;;;4.30;3.60;;;20.90;99.90;;;;;;5097947;28;20178;-64
2021/08/31 07:59:17;;;;;;;4.07;3.67;;;20.90;99.90;;;;;;5090703;28;20443;-64
2021/08/31 08:01:43;;;;;;;3.03;2.73;;;21.00;99.90;;;;;;5095839;28;20663;-66
2021/08/31 08:04:09;;;;;;;3.60;3.37;;;21.10;99.90;;;;;;5092629;28;20190;-65
2021/08/31 08:06:35;;;;;;;3.33;3.10;;;21.20;99.90;;;;;;5095522;28;20179;-64
2021/08/31 08:09:00;;;;;;;4.30;3.70;;;21.20;99.90;;;;;;5098861;28;20208;-64
2021/08/31 08:11:26;;;;;;;4.50;4.10;;;21.30;99.90;;;;;;5095538;28;20817;-64
2021/08/31 08:13:52;;;;;;;3.80;3.50;;;21.40;99.90;;;;;;5091329;28;20439;-65
2021/08/31 08:16:19;;;;;;;4.23;3.70;;;21.40;99.90;;;;;;5095609;28;20422;-64
2021/08/31 08:18:46;;;;;;;3.50;3.20;;;21.50;99.90;;;;;;5099426;28;20564;-65
2021/08/31 08:21:11;;;;;;;4.43;3.47;;;21.60;99.90;;;;;;5099114;28;21030;-63
2021/08/31 08:23:37;;;;;;;3.53;3.23;;;21.70;99.90;;;;;;5100152;28;20844;-66
2021/08/31 08:26:03;;;;;;;3.60;3.03;;;21.70;99.90;;;;;;5097766;28;20200;-63
2021/08/31 08:28:29;;;;;;;3.83;3.53;;;21.80;99.90;;;;;;5104187;28;20236;-65
2021/08/31 08:30:55;;;;;;;3.17;2.87;;;21.80;99.90;;;;;;5100804;28;20446;-64
2021/08/31 08:33:21;;;;;;;4.07;3.73;;;21.90;99.90;;;;;;5136401;27;20212;-64
2021/08/31 08:35:48;;;;;;;4.60;4.20;;;21.90;99.90;;;;;;5108776;28;20724;-64
2021/08/31 08:38:14;;;;;;;2.90;2.70;;;22.00;99.90;;;;;;5101231;28;20427;-64
2021/08/31 08:40:41;;;;;;;2.87;2.67;;;22.00;99.90;;;;;;5101086;28;20973;-64
2021/08/31 08:43:07;;;;;;;3.43;3.23;;;22.10;99.90;;;;;;5108738;28;20942;-65
2021/08/31 08:45:33;;;;;;;2.97;2.77;;;22.30;99.90;;;;;;5106667;28;20448;-65
2021/08/31 08:47:59;;;;;;;3.20;3.00;;;22.80;99.90;;;;;;5108348;28;20836;-64
2021/08/31 08:50:26;;;;;;;2.73;2.50;;;23.60;99.90;;;;;;5132603;27;20448;-63
2021/08/31 08:52:52;;;;;;;2.80;2.60;;;24.30;99.90;;;;;;5139609;27;20428;-65
2021/08/31 08:55:18;;;;;;;3.27;2.97;;;24.90;99.90;;;;;;5107454;28;20889;-64
2021/08/31 08:57:43;;;;;;;2.67;2.47;;;25.30;99.90;;;;;;5112267;28;20200;-64
2021/08/31 09:00:11;;;;;;;2.40;2.20;;;25.40;99.90;;;;;;5110457;28;20599;-65
2021/08/31 09:02:39;;;;;;;2.73;2.37;;;25.30;99.90;;;;;;5113202;28;20199;-65
2021/08/31 09:05:28;;;;;;;3.77;3.33;;;25.00;99.90;;;;;;5105150;28;21584;-63
2021/08/31 09:08:06;;;;;;;2.53;2.33;;;24.60;99.90;;;;;;5113121;28;20505;-64
2021/08/31 09:10:31;;;;;;;5.77;2.10;;;24.30;99.90;;;;;;5106156;28;20447;-63
2021/08/31 09:12:57;;;;;;;2.50;2.30;;;24.10;99.90;;;;;;5109911;28;20485;-65
2021/08/31 09:15:36;;;;;;;2.90;2.60;;;24.00;99.90;;;;;;5108688;28;20203;-64
2021/08/31 09:18:11;;;;;;;3.20;2.70;;;23.90;99.90;;;;;;5107829;28;20452;-65
2021/08/31 09:20:46;;;;;;;2.30;2.10;;;23.80;99.90;;;;;;5108953;28;20668;-64
2021/08/31 09:23:25;;;;;;;2.63;2.43;;;23.80;99.90;;;;;;5110271;28;20430;-64
2021/08/31 09:25:55;;;;;;;2.50;2.30;;;23.70;99.90;;;;;;5109511;28;20972;-64
2021/08/31 09:28:32;;;;;;;2.87;2.47;;;23.50;99.90;;;;;;5105445;28;20574;-63
2021/08/31 09:31:10;;;;;;;2.80;2.60;;;23.40;99.90;;;;;;5105315;28;20843;-64
2021/08/31 09:33:41;;;;;;;3.97;2.03;;;23.40;99.90;;;;;;5135720;27;20430;-66
2021/08/31 09:36:13;;;;;;;2.60;2.40;;;23.30;99.90;;;;;;5106917;28;20452;-64
2021/08/31 09:38:43;;;;;;;3.10;2.40;;;23.30;99.90;;;;;;5096220;28;20840;-65
2021/08/31 09:41:09;;;;;;;2.33;2.13;;;23.30;99.90;;;;;;5126906;27;20435;-64
2021/08/31 09:43:35;;;;;;;2.50;2.30;;;23.40;99.90;;;;;;5107022;28;20786;-65
2021/08/31 09:46:00;;;;;;;2.10;2.00;;;23.40;99.90;;;;;;5101595;28;20460;-64
2021/08/31 09:48:26;;;;;;;2.33;2.13;;;23.40;99.90;;;;;;5096328;28;20504;-64
2021/08/31 09:50:55;;;;;;;2.53;2.33;;;23.40;99.90;;;;;;5102023;28;20204;-64
2021/08/31 09:53:27;;;;;;;2.90;2.60;;;23.50;99.90;;;;;;5100284;28;20709;-65
2021/08/31 09:56:02;;;;;;;1.93;1.77;;;23.50;99.90;;;;;;5095988;28;20520;-64
2021/08/31 09:58:33;;;;;;;2.23;2.13;;;23.50;99.90;;;;;;5132937;27;20439;-64
2021/08/31 10:00:59;;;;;;;2.63;2.43;;;23.50;99.90;;;;;;5106522;28;20455;-65
2021/08/31 10:03:25;;;;;;;2.30;2.20;;;23.50;99.90;;;;;;5095452;28;20469;-64
2021/08/31 10:05:53;;;;;;;2.97;2.30;;;23.60;99.90;;;;;;5100288;28;20444;-65
2021/08/31 10:08:20;;;;;;;2.13;1.93;;;23.60;99.90;;;;;;5100402;28;20484;-64
2021/08/31 10:10:48;;;;;;;2.63;2.43;;;23.70;99.90;;;;;;5101040;28;20425;-64
2021/08/31 10:13:20;;;;;;;2.27;2.07;;;23.70;99.90;;;;;;5102980;28;20929;-65
2021/08/31 10:15:49;;;;;;;2.30;2.13;;;23.70;99.90;;;;;;5102056;28;20981;-64
2021/08/31 10:18:17;;;;;;;2.40;2.20;;;23.70;99.90;;;;;;5104418;28;20420;-64
2021/08/31 10:21:11;;;;;;;1.80;1.70;;;23.70;99.90;;;;;;5106805;28;20432;-64
2021/08/31 10:23:45;;;;;;;2.40;2.20;;;23.70;99.90;;;;;;5105364;28;20429;-64
2021/08/31 10:26:31;;;;;;;2.60;2.40;;;23.60;99.90;;;;;;5096539;28;20462;-64
2021/08/31 10:29:16;;;;;;;2.60;2.40;;;23.50;99.90;;;;;;5134179;27;20572;-64
2021/08/31 10:31:43;;;;;;;2.70;2.50;;;23.50;99.90;;;;;;5099590;28;20960;-64
2021/08/31 10:34:30;;;;;;;2.90;2.63;;;23.50;99.90;;;;;;5103638;28;20452;-65
2021/08/31 10:37:00;;;;;;;2.80;2.60;;;23.40;99.90;;;;;;5100394;28;20777;-65
2021/08/31 10:39:41;;;;;;;3.20;2.90;;;23.40;99.90;;;;;;5103333;28;20511;-65
2021/08/31 10:42:30;;;;;;;2.90;2.70;;;23.40;99.90;;;;;;5103060;28;20447;-64
2021/08/31 10:45:05;;;;;;;3.10;2.90;;;23.40;99.90;;;;;;5099822;28;20444;-67
2021/08/31 10:47:37;;;;;;;3.17;2.87;;;23.30;99.90;;;;;;5105502;28;20436;-65
2021/08/31 10:50:05;;;;;;;3.40;3.10;;;23.30;99.90;;;;;;5101738;28;20589;-65
2021/08/31 10:52:39;;;;;;;3.20;2.90;;;23.30;99.90;;;;;;5096426;28;20432;-67
2021/08/31 10:55:27;;;;;;;3.30;3.10;;;23.20;99.90;;;;;;5103842;28;20524;-66
2021/08/31 10:58:01;;;;;;;2.90;2.70;;;23.30;99.90;;;;;;5093051;28;20431;-68
2021/08/31 11:00:28;;;;;;;4.80;2.90;;;23.30;99.90;;;;;;5100133;28;20859;-66
2021/08/31 11:03:00;;;;;;;3.03;2.83;;;23.30;99.90;;;;;;5135923;27;20485;-67
2021/08/31 11:05:33;;;;;;;4.47;2.80;;;23.40;99.90;;;;;;5099109;28;20440;-66
2021/08/31 11:07:59;;;;;;;3.70;3.40;;;23.40;99.90;;;;;;5107672;28;20471;-66
2021/08/31 11:10:37;;;;;;;3.03;2.80;;;23.40;99.90;;;;;;5131819;27;20813;-66
2021/08/31 11:13:17;;;;;;;3.60;3.30;;;23.40;99.90;;;;;;5098664;28;20949;-66
2021/08/31 11:15:47;;;;;;;3.40;2.93;;;23.40;99.90;;;;;;5101609;28;20471;-66
2021/08/31 11:18:15;;;;;;;3.10;2.77;;;23.50;99.90;;;;;;5106041;28;21140;-66
2021/08/31 11:20:42;;;;;;;3.40;3.10;;;23.50;99.90;;;;;;5103199;28;20451;-67
2021/08/31 11:23:18;;;;;;;4.27;3.47;;;23.60;99.90;;;;;;5104782;28;20471;-67
2021/08/31 11:25:54;;;;;;;3.20;3.00;;;23.60;99.90;;;;;;5098062;28;20502;-65
2021/08/31 11:28:28;;;;;;;3.37;3.07;;;23.70;99.90;;;;;;5098703;28;20546;-67
2021/08/31 11:31:04;;;;;;;3.03;2.80;;;23.70;99.90;;;;;;5099508;28;20544;-67
2021/08/31 11:33:39;;;;;;;3.57;3.27;;;23.80;99.90;;;;;;5118500;27;20442;-66
2021/08/31 11:36:13;;;;;;;3.37;3.07;;;23.80;99.90;;;;;;5100075;28;20860;-67
2021/08/31 11:38:42;;;;;;;3.20;2.90;;;23.70;99.90;;;;;;5112461;27;20833;-66
2021/08/31 11:41:23;;;;;;;3.30;3.00;;;23.70;99.90;;;;;;5099304;28;20503;-66
2021/08/31 11:44:01;;;;;;;3.70;3.40;;;23.70;99.90;;;;;;5104593;28;20471;-67
2021/08/31 11:46:32;;;;;;;3.07;2.80;;;23.70;99.90;;;;;;5102690;28;21017;-66
2021/08/31 11:49:27;;;;;;;3.10;2.90;;;23.70;99.90;;;;;;5102573;28;20559;-66
2021/08/31 11:52:05;;;;;;;3.23;2.93;;;23.60;99.90;;;;;;5101300;28;20462;-66
2021/08/31 11:54:43;;;;;;;3.00;2.80;;;23.60;99.90;;;;;;5104861;28;20462;-66
2021/08/31 11:57:09;;;;;;;3.47;2.73;;;23.50;99.90;;;;;;5106261;28;20429;-66
2021/08/31 11:59:43;;;;;;;2.93;2.47;;;23.50;99.90;;;;;;5104422;28;20787;-65
2021/08/31 12:02:28;;;;;;;3.17;2.90;;;23.50;99.90;;;;;;5112317;28;20587;-66
2021/08/31 12:04:54;;;;;;;2.70;2.50;;;23.50;99.90;;;;;;5100067;28;20452;-66
2021/08/31 12:07:26;;;;;;;2.80;2.60;;;23.40;99.90;;;;;;5127778;27;20451;-65
2021/08/31 12:09:58;;;;;;;3.30;3.00;;;23.40;99.90;;;;;;5129400;27;20697;-67
2021/08/31 12:12:24;;;;;;;3.30;3.00;;;23.40;99.90;;;;;;5100608;28;20443;-66
2021/08/31 12:14:51;;;;;;;3.10;2.83;;;23.40;99.90;;;;;;5103268;28;20452;-66
2021/08/31 12:17:36;;;;;;;2.90;2.70;;;23.50;99.90;;;;;;5104520;28;20199;-65
2021/08/31 12:20:07;;;;;;;3.13;2.83;;;23.40;99.90;;;;;;5100214;28;20453;-66
2021/08/31 12:22:34;;;;;;;2.87;2.67;;;23.40;99.90;;;;;;5106546;28;20432;-66
2021/08/31 12:25:00;;;;;;;2.90;2.70;;;23.40;99.90;;;;;;5100377;28;20506;-66
2021/08/31 12:27:38;;;;;;;2.60;2.40;;;23.40;99.90;;;;;;5103442;28;20522;-67
2021/08/31 12:30:05;;;;;;;2.77;2.57;;;23.40;99.90;;;;;;5098972;28;20459;-66
2021/08/31 12:32:33;;;;;;;2.53;2.33;;;23.40;99.90;;;;;;5101925;28;20804;-66
2021/08/31 12:35:24;;;;;;;2.80;2.60;;;23.50;99.90;;;;;;5102595;28;20542;-66
2021/08/31 12:38:10;;;;;;;2.53;2.37;;;23.60;99.90;;;;;;5099845;28;20433;-66
2021/08/31 12:40:38;;;;;;;2.93;2.73;;;23.60;99.90;;;;;;5097563;28;20509;-67
2021/08/31 12:43:13;;;;;;;4.70;2.33;;;23.70;99.90;;;;;;5096416;28;20854;-66
2021/08/31 12:45:40;;;;;;;2.73;2.50;;;23.70;99.90;;;;;;5098349;28;20445;-66
2021/08/31 12:48:06;;;;;;;2.53;2.33;;;23.80;99.90;;;;;;5095392;28;20465;-67
2021/08/31 12:50:32;;;;;;;2.50;2.40;;;23.80;99.90;;;;;;5098178;28;20853;-66